createdAt,value
2023-05-17T00:00:26.625Z,100.00
2023-05-17T00:02:53.198Z,100.00
2023-05-17T00:05:19.962Z,100.00
2023-05-17T00:07:47.302Z,100.00
2023-05-17T00:10:14.109Z,100.00
2023-05-17T00:12:40.797Z,100.00
2023-05-17T00:15:08.063Z,100.00
2023-05-17T00:17:37.364Z,100.00
2023-05-17T00:20:05.436Z,100.00
2023-05-17T00:22:32.014Z,100.00
2023-05-17T00:24:58.692Z,100.00
2023-05-17T00:27:25.416Z,100.00
2023-05-17T00:29:52.158Z,100.00
2023-05-17T00:32:18.746Z,100.00
2023-05-17T00:34:45.483Z,100.00
2023-05-17T00:37:12.196Z,100.00
2023-05-17T00:39:38.766Z,100.00
2023-05-17T00:42:06.166Z,100.00
2023-05-17T00:44:32.807Z,100.00
2023-05-17T00:47:00.001Z,100.00
2023-05-17T00:49:27.157Z,100.00
2023-05-17T00:51:54.430Z,100.00
2023-05-17T00:54:22.277Z,100.00
2023-05-17T00:56:49.435Z,100.00
2023-05-17T00:59:17.768Z,100.00
2023-05-17T01:01:44.687Z,100.00
2023-05-17T01:04:12.547Z,100.00
2023-05-17T01:06:40.382Z,100.00
2023-05-17T01:09:08.300Z,100.00
2023-05-17T01:11:54.918Z,100.00
2023-05-17T01:14:21.459Z,100.00
2023-05-17T01:17:03.068Z,100.00
2023-05-17T01:19:51.415Z,100.00
2023-05-17T01:22:31.960Z,100.00
2023-05-17T01:25:07.619Z,100.00
2023-05-17T01:27:36.736Z,100.00
2023-05-17T01:30:04.134Z,100.00
2023-05-17T01:32:33.460Z,100.00
2023-05-17T01:35:00.504Z,100.00
2023-05-17T01:37:27.146Z,100.00
2023-05-17T01:39:53.890Z,100.00
2023-05-17T01:42:25.819Z,100.00
2023-05-17T01:45:04.171Z,100.00
2023-05-17T01:47:37.810Z,100.00
2023-05-17T01:50:07.186Z,100.00
2023-05-17T01:53:03.530Z,100.00
2023-05-17T01:56:15.867Z,100.00
2023-05-17T01:58:47.515Z,100.00
2023-05-17T02:01:18.199Z,100.00
2023-05-17T02:03:52.402Z,100.00
2023-05-17T02:06:19.004Z,100.00
2023-05-17T02:08:45.814Z,100.00
2023-05-17T02:11:12.755Z,100.00
2023-05-17T02:13:40.555Z,100.00
2023-05-17T02:16:07.731Z,100.00
2023-05-17T02:18:35.852Z,100.00
2023-05-17T02:21:03.861Z,100.00
2023-05-17T02:23:30.404Z,100.00
2023-05-17T02:25:57.092Z,100.00
2023-05-17T02:28:23.790Z,100.00
2023-05-17T02:30:50.393Z,100.00
2023-05-17T02:33:17.080Z,100.00
2023-05-17T02:35:43.774Z,100.00
2023-05-17T02:38:10.559Z,100.00
2023-05-17T02:40:37.144Z,100.00
2023-05-17T02:43:03.758Z,100.00
2023-05-17T02:45:30.751Z,100.00
2023-05-17T02:47:57.537Z,100.00
2023-05-17T02:50:24.120Z,100.00
2023-05-17T02:52:51.142Z,100.00
2023-05-17T02:55:18.134Z,100.00
2023-05-17T02:57:44.859Z,100.00
2023-05-17T03:00:11.943Z,100.00
2023-05-17T03:02:38.743Z,100.00
2023-05-17T03:05:06.225Z,100.00
2023-05-17T03:07:32.887Z,100.00
2023-05-17T03:09:59.757Z,100.00
2023-05-17T03:12:30.253Z,100.00
2023-05-17T03:14:57.389Z,100.00
2023-05-17T03:17:24.435Z,100.00
2023-05-17T03:19:51.438Z,100.00
2023-05-17T03:22:18.177Z,100.00
2023-05-17T03:24:45.022Z,100.00
2023-05-17T03:27:11.672Z,100.00
2023-05-17T03:29:39.197Z,100.00
2023-05-17T03:32:06.744Z,100.00
2023-05-17T03:34:33.304Z,100.00
2023-05-17T03:37:01.457Z,100.00
2023-05-17T03:39:28.080Z,100.00
2023-05-17T03:41:55.068Z,100.00
2023-05-17T03:44:22.953Z,100.00
2023-05-17T03:46:50.305Z,100.00
2023-05-17T03:49:18.014Z,100.00
2023-05-17T03:51:45.770Z,100.00
2023-05-17T03:54:12.454Z,100.00
2023-05-17T03:56:39.025Z,100.00
2023-05-17T03:59:05.761Z,100.00
2023-05-17T04:01:33.259Z,100.00
2023-05-17T04:04:01.419Z,100.00
2023-05-17T04:06:28.361Z,100.00
2023-05-17T04:08:55.371Z,100.00
2023-05-17T04:11:24.341Z,100.00
2023-05-17T04:13:51.603Z,100.00
2023-05-17T04:16:18.484Z,100.00
2023-05-17T04:18:45.779Z,100.00
2023-05-17T04:21:13.165Z,100.00
2023-05-17T04:23:40.006Z,100.00
2023-05-17T04:26:06.676Z,100.00
2023-05-17T04:28:37.910Z,100.00
2023-05-17T04:31:08.629Z,100.00
2023-05-17T04:33:36.872Z,100.00
2023-05-17T04:36:06.470Z,100.00
2023-05-17T04:38:33.888Z,100.00
2023-05-17T04:41:07.332Z,100.00
2023-05-17T04:43:36.846Z,100.00
2023-05-17T04:46:07.024Z,100.00
2023-05-17T04:48:34.283Z,100.00
2023-05-17T04:51:02.509Z,100.00
2023-05-17T04:53:29.779Z,100.00
2023-05-17T04:55:58.308Z,100.00
2023-05-17T04:58:26.759Z,100.00
2023-05-17T05:00:57.597Z,100.00
2023-05-17T05:03:24.455Z,100.00
2023-05-17T05:05:51.578Z,100.00
2023-05-17T05:08:18.463Z,100.00
2023-05-17T05:10:46.284Z,100.00
2023-05-17T05:13:14.811Z,100.00
2023-05-17T05:15:42.918Z,100.00
2023-05-17T05:18:09.642Z,100.00
2023-05-17T05:20:36.509Z,100.00
2023-05-17T05:23:06.064Z,100.00
2023-05-17T05:25:34.270Z,100.00
2023-05-17T05:28:01.608Z,100.00
2023-05-17T05:30:30.130Z,100.00
2023-05-17T05:32:56.910Z,100.00
2023-05-17T05:35:29.419Z,100.00
2023-05-17T05:37:58.262Z,100.00
2023-05-17T05:40:25.058Z,100.00
2023-05-17T05:42:52.534Z,100.00
2023-05-17T05:45:21.640Z,100.00
2023-05-17T05:47:50.780Z,100.00
2023-05-17T05:50:18.322Z,100.00
2023-05-17T05:52:46.340Z,100.00
2023-05-17T05:55:13.129Z,100.00
2023-05-17T05:57:39.926Z,100.00
2023-05-17T06:00:07.416Z,100.00
2023-05-17T06:02:40.011Z,100.00
2023-05-17T06:05:07.098Z,100.00
2023-05-17T06:07:33.927Z,100.00
2023-05-17T06:10:00.648Z,100.00
2023-05-17T06:12:27.317Z,100.00
2023-05-17T06:14:53.933Z,100.00
2023-05-17T06:17:21.516Z,100.00
2023-05-17T06:19:49.336Z,100.00
2023-05-17T06:22:16.429Z,100.00
2023-05-17T06:24:43.173Z,100.00
2023-05-17T06:27:09.955Z,100.00
2023-05-17T06:29:36.679Z,100.00
2023-05-17T06:32:04.207Z,100.00
2023-05-17T06:34:30.848Z,100.00
2023-05-17T06:36:57.444Z,100.00
2023-05-17T06:39:24.073Z,100.00
2023-05-17T06:41:50.878Z,100.00
2023-05-17T06:44:17.857Z,100.00
2023-05-17T06:46:44.472Z,100.00
2023-05-17T06:49:11.101Z,100.00
2023-05-17T06:51:37.881Z,100.00
2023-05-17T06:54:04.620Z,100.00
2023-05-17T06:56:31.800Z,100.00
2023-05-17T06:58:58.473Z,100.00
2023-05-17T07:01:25.897Z,100.00
2023-05-17T07:03:52.808Z,100.00
2023-05-17T07:06:19.611Z,100.00
2023-05-17T07:08:46.590Z,100.00
2023-05-17T07:11:13.207Z,100.00
2023-05-17T07:13:39.802Z,100.00
2023-05-17T07:16:10.618Z,100.00
2023-05-17T07:18:37.567Z,100.00
2023-05-17T07:21:04.636Z,100.00
2023-05-17T07:23:31.332Z,100.00
2023-05-17T07:25:57.915Z,100.00
2023-05-17T07:28:26.220Z,100.00
2023-05-17T07:30:52.829Z,100.00
2023-05-17T07:33:19.446Z,100.00
2023-05-17T07:35:46.044Z,100.00
2023-05-17T07:38:12.680Z,100.00
2023-05-17T07:40:39.333Z,100.00
2023-05-17T07:43:06.102Z,100.00
2023-05-17T07:45:32.753Z,100.00
2023-05-17T07:47:59.576Z,100.00
2023-05-17T07:50:26.654Z,100.00
2023-05-17T07:52:53.562Z,100.00
2023-05-17T07:55:21.370Z,100.00
2023-05-17T07:57:48.505Z,100.00
2023-05-17T08:00:15.817Z,100.00
2023-05-17T08:02:43.139Z,100.00
2023-05-17T08:05:10.779Z,100.00
2023-05-17T08:07:37.651Z,100.00
2023-05-17T08:10:04.541Z,100.00
2023-05-17T08:12:31.350Z,100.00
2023-05-17T08:14:58.184Z,100.00
2023-05-17T08:17:24.834Z,100.00
2023-05-17T08:19:51.758Z,95.34
2023-05-17T08:22:18.614Z,100.00
2023-05-17T08:24:46.782Z,83.48
2023-05-17T08:27:13.345Z,81.67
2023-05-17T08:29:40.137Z,92.07
2023-05-17T08:32:07.170Z,98.18
2023-05-17T08:34:34.168Z,91.21
2023-05-17T08:37:01.221Z,96.36
2023-05-17T08:39:27.994Z,95.86
2023-05-17T08:41:59.395Z,88.38
2023-05-17T08:44:27.245Z,93.58
2023-05-17T08:46:56.541Z,99.91
2023-05-17T08:49:25.999Z,95.91
2023-05-17T08:51:54.451Z,98.80
2023-05-17T08:54:21.106Z,100.00
2023-05-17T08:56:52.157Z,89.52
2023-05-17T08:59:22.115Z,71.64
2023-05-17T09:01:51.188Z,82.60
2023-05-17T09:04:18.186Z,82.77
2023-05-17T09:06:45.666Z,87.32
2023-05-17T09:09:12.529Z,85.33
2023-05-17T09:11:39.174Z,88.71
2023-05-17T09:14:07.570Z,88.69
2023-05-17T09:16:37.256Z,74.39
2023-05-17T09:19:07.848Z,79.46
2023-05-17T09:21:35.245Z,61.43
2023-05-17T09:24:06.964Z,55.76
2023-05-17T09:26:40.266Z,62.96
2023-05-17T09:29:16.427Z,60.32
2023-05-17T09:31:43.949Z,58.90
2023-05-17T09:34:11.105Z,76.12
2023-05-17T09:36:38.799Z,79.88
2023-05-17T09:39:07.869Z,61.89
2023-05-17T09:41:56.955Z,58.19
2023-05-17T09:44:26.564Z,56.69
2023-05-17T09:46:53.228Z,57.41
2023-05-17T09:49:19.807Z,57.18
2023-05-17T09:51:50.068Z,52.16
2023-05-17T09:54:17.953Z,57.69
2023-05-17T09:56:45.154Z,54.34
2023-05-17T09:59:13.656Z,50.50
2023-05-17T10:01:41.762Z,52.56
2023-05-17T10:04:12.492Z,51.41
2023-05-17T10:09:14.014Z,50.72
2023-05-17T10:11:44.259Z,60.36
2023-05-17T10:14:33.836Z,72.28
2023-05-17T10:17:02.990Z,72.51
2023-05-17T10:19:30.580Z,74.46
2023-05-17T10:22:05.120Z,64.82
2023-05-17T10:24:46.611Z,68.28
2023-05-17T10:27:13.682Z,67.40
2023-05-17T10:29:41.378Z,67.57
2023-05-17T10:32:08.598Z,61.36
2023-05-17T10:34:38.312Z,55.82
2023-05-17T10:37:05.907Z,55.59
2023-05-17T10:39:34.954Z,63.99
2023-05-17T10:42:14.169Z,57.97
2023-05-17T10:44:42.158Z,56.85
2023-05-17T10:47:11.229Z,53.61
2023-05-17T10:49:45.064Z,54.72
2023-05-17T10:52:23.758Z,45.25
2023-05-17T10:54:51.795Z,54.16
2023-05-17T10:57:21.528Z,52.77
2023-05-17T10:59:59.684Z,56.89
2023-05-17T11:02:28.171Z,52.49
2023-05-17T11:04:57.698Z,50.45
2023-05-17T11:07:27.934Z,45.25
2023-05-17T11:10:08.492Z,48.61
2023-05-17T11:12:40.213Z,49.84
2023-05-17T11:15:17.682Z,54.81
2023-05-17T11:17:44.586Z,56.54
2023-05-17T11:20:26.801Z,55.93
2023-05-17T11:23:00.830Z,58.17
2023-05-17T11:25:36.262Z,53.53
2023-05-17T11:28:10.203Z,40.48
2023-05-17T11:30:43.716Z,43.30
2023-05-17T11:33:21.198Z,51.90
2023-05-17T11:35:57.437Z,61.62
2023-05-17T11:38:30.282Z,58.54
2023-05-17T11:40:57.791Z,61.47
2023-05-17T11:43:27.345Z,58.08
2023-05-17T11:46:01.567Z,54.41
2023-05-17T11:48:30.552Z,55.81
2023-05-17T11:50:58.924Z,57.52
2023-05-17T11:53:28.437Z,53.51
2023-05-17T11:55:56.053Z,54.59
2023-05-17T11:58:27.066Z,52.12
2023-05-17T12:00:55.024Z,47.29
2023-05-17T12:03:24.726Z,48.70
2023-05-17T12:06:09.694Z,48.93
2023-05-17T12:08:38.592Z,51.93
2023-05-17T12:11:07.636Z,54.92
2023-05-17T12:13:35.662Z,51.43
2023-05-17T12:16:07.296Z,53.10
2023-05-17T12:18:41.105Z,53.65
2023-05-17T12:21:09.263Z,53.71
2023-05-17T12:23:40.599Z,51.12
2023-05-17T12:26:16.287Z,51.14
2023-05-17T12:28:45.075Z,48.51
2023-05-17T12:31:18.546Z,52.59
2023-05-17T12:33:47.925Z,55.71
2023-05-17T12:36:15.618Z,53.84
2023-05-17T12:38:43.638Z,49.78
2023-05-17T12:41:12.860Z,49.80
2023-05-17T12:43:40.763Z,46.34
2023-05-17T12:46:07.896Z,39.90
2023-05-17T12:48:38.984Z,37.41
2023-05-17T12:51:11.748Z,41.08
2023-05-17T12:53:43.642Z,42.77
2023-05-17T12:56:22.645Z,42.76
2023-05-17T12:59:04.675Z,46.30
2023-05-17T13:01:39.964Z,53.04
2023-05-17T13:04:06.758Z,49.67
2023-05-17T13:06:51.122Z,51.48
2023-05-17T13:09:19.475Z,54.60
2023-05-17T13:11:53.718Z,51.49
2023-05-17T13:14:47.230Z,55.02
2023-05-17T13:17:35.411Z,46.17
2023-05-17T13:20:02.836Z,41.79
2023-05-17T13:22:29.573Z,41.25
2023-05-17T13:24:56.464Z,46.85
2023-05-17T13:27:23.210Z,51.42
2023-05-17T13:29:50.200Z,52.90
2023-05-17T13:32:16.792Z,51.55
2023-05-17T13:34:43.628Z,49.45
2023-05-17T13:37:12.399Z,51.33
2023-05-17T13:39:41.720Z,40.14
2023-05-17T13:42:08.863Z,44.48
2023-05-17T13:44:35.541Z,46.51
2023-05-17T13:47:02.249Z,52.13
2023-05-17T13:49:29.042Z,52.28
2023-05-17T13:51:56.593Z,51.88
2023-05-17T13:54:24.254Z,50.67
2023-05-17T13:56:51.181Z,53.80
2023-05-17T13:59:17.828Z,53.81
2023-05-17T14:01:45.259Z,52.46
2023-05-17T14:04:12.208Z,55.42
2023-05-17T14:06:39.187Z,55.72
2023-05-17T14:09:06.312Z,60.07
2023-05-17T14:11:33.531Z,60.79
2023-05-17T14:14:01.229Z,61.48
2023-05-17T14:16:28.040Z,50.18
2023-05-17T14:18:54.899Z,40.68
2023-05-17T14:21:21.536Z,42.10
2023-05-17T14:23:48.450Z,38.66
2023-05-17T14:26:16.133Z,38.83
2023-05-17T14:28:42.982Z,37.78
2023-05-17T14:31:10.814Z,37.96
2023-05-17T14:33:37.733Z,36.45
2023-05-17T14:36:04.812Z,37.31
2023-05-17T14:38:31.752Z,36.26
2023-05-17T14:41:00.713Z,37.28
2023-05-17T14:43:28.898Z,33.84
2023-05-17T14:45:55.676Z,34.71
2023-05-17T14:48:22.615Z,33.52
2023-05-17T14:50:49.556Z,29.07
2023-05-17T14:53:16.593Z,29.70
2023-05-17T14:55:43.417Z,34.20
2023-05-17T14:58:13.159Z,37.60
2023-05-17T15:00:41.985Z,41.30
2023-05-17T15:03:09.259Z,42.19
2023-05-17T15:05:36.401Z,46.04
2023-05-17T15:08:03.121Z,48.61
2023-05-17T15:10:30.028Z,53.55
2023-05-17T15:12:57.014Z,52.13
2023-05-17T15:15:23.715Z,51.16
2023-05-17T15:17:50.588Z,58.45
2023-05-17T15:20:18.390Z,57.23
2023-05-17T15:22:45.132Z,53.65
2023-05-17T15:25:11.905Z,57.22
2023-05-17T15:27:38.514Z,60.92
2023-05-17T15:30:05.861Z,63.58
2023-05-17T15:32:33.888Z,63.10
2023-05-17T15:35:00.679Z,62.27
2023-05-17T15:37:27.845Z,63.12
2023-05-17T15:39:54.423Z,64.08
2023-05-17T15:42:21.149Z,63.50
2023-05-17T15:44:47.850Z,63.90
2023-05-17T15:47:14.677Z,72.49
2023-05-17T15:49:41.550Z,77.17
2023-05-17T15:52:08.936Z,79.94
2023-05-17T15:54:35.565Z,78.13
2023-05-17T15:57:02.471Z,82.52
2023-05-17T15:59:29.217Z,74.66
2023-05-17T16:01:55.838Z,73.58
2023-05-17T16:04:22.552Z,76.54
2023-05-17T16:06:49.541Z,80.93
2023-05-17T16:09:16.756Z,81.84
2023-05-17T16:11:43.771Z,82.80
2023-05-17T16:14:10.473Z,81.07
2023-05-17T16:16:51.573Z,80.46
2023-05-17T16:19:19.646Z,82.41
2023-05-17T16:21:49.226Z,76.99
2023-05-17T16:24:17.439Z,68.85
2023-05-17T16:26:44.352Z,63.59
2023-05-17T16:29:13.840Z,64.12
2023-05-17T16:31:40.629Z,72.27
2023-05-17T16:34:07.456Z,78.88
2023-05-17T16:36:34.115Z,85.06
2023-05-17T16:39:00.780Z,82.46
2023-05-17T16:41:28.819Z,86.23
2023-05-17T16:43:55.560Z,83.16
2023-05-17T16:46:24.682Z,92.56
2023-05-17T16:48:53.378Z,92.35
2023-05-17T16:51:20.065Z,96.17
2023-05-17T16:53:46.776Z,100.00
2023-05-17T16:56:13.624Z,100.00
2023-05-17T16:58:41.112Z,100.00
2023-05-17T17:01:08.053Z,98.18
2023-05-17T17:03:34.838Z,99.99
2023-05-17T17:06:01.974Z,98.00
2023-05-17T17:08:28.683Z,96.22
2023-05-17T17:10:55.276Z,98.39
2023-05-17T17:13:21.862Z,100.00
2023-05-17T17:15:50.980Z,100.00
2023-05-17T17:18:17.782Z,96.91
2023-05-17T17:20:45.315Z,100.00
2023-05-17T17:23:12.401Z,100.00
2023-05-17T17:25:38.985Z,98.15
2023-05-17T17:28:05.724Z,100.00
2023-05-17T17:30:32.726Z,100.00
2023-05-17T17:32:59.606Z,100.00
2023-05-17T17:35:26.518Z,100.00
2023-05-17T17:37:53.270Z,100.00
2023-05-17T17:40:20.366Z,100.00
2023-05-17T17:42:47.200Z,100.00
2023-05-17T17:45:14.117Z,100.00
2023-05-17T17:47:42.276Z,100.00
2023-05-17T17:50:09.485Z,100.00
2023-05-17T17:52:37.347Z,100.00
2023-05-17T17:55:04.578Z,100.00
2023-05-17T17:57:32.099Z,100.00
2023-05-17T17:59:58.783Z,100.00
2023-05-17T18:02:25.979Z,100.00
2023-05-17T18:04:52.633Z,100.00
2023-05-17T18:07:19.441Z,100.00
2023-05-17T18:09:46.210Z,100.00
2023-05-17T18:12:12.961Z,100.00
2023-05-17T18:14:39.547Z,100.00
2023-05-17T18:17:08.239Z,100.00
2023-05-17T18:19:35.001Z,100.00
2023-05-17T18:22:02.401Z,100.00
2023-05-17T18:24:29.110Z,100.00
2023-05-17T18:26:55.850Z,100.00
2023-05-17T18:29:22.592Z,100.00
2023-05-17T18:31:49.295Z,100.00
2023-05-17T18:34:16.191Z,100.00
2023-05-17T18:36:42.826Z,100.00
2023-05-17T18:39:10.118Z,100.00
2023-05-17T18:41:36.928Z,100.00
2023-05-17T18:44:03.873Z,100.00
2023-05-17T18:46:30.748Z,100.00
2023-05-17T18:48:57.705Z,100.00
2023-05-17T18:51:24.690Z,100.00
2023-05-17T18:53:51.560Z,100.00
2023-05-17T18:56:22.670Z,100.00
2023-05-17T18:58:55.506Z,100.00
2023-05-17T19:01:22.521Z,100.00
2023-05-17T19:03:51.513Z,100.00
2023-05-17T19:06:19.907Z,100.00
2023-05-17T19:08:46.790Z,100.00
2023-05-17T19:11:13.532Z,100.00
2023-05-17T19:13:40.335Z,100.00
2023-05-17T19:16:07.682Z,100.00
2023-05-17T19:18:34.477Z,100.00
2023-05-17T19:21:01.785Z,100.00
2023-05-17T19:23:32.016Z,100.00
2023-05-17T19:25:59.309Z,100.00
2023-05-17T19:28:26.113Z,100.00
2023-05-17T19:30:52.872Z,100.00
2023-05-17T19:33:19.796Z,100.00
2023-05-17T19:35:46.861Z,100.00
2023-05-17T19:38:13.652Z,100.00
2023-05-17T19:40:41.301Z,100.00
2023-05-17T19:43:08.040Z,100.00
2023-05-17T19:45:34.650Z,100.00
2023-05-17T19:48:02.318Z,100.00
2023-05-17T19:50:29.677Z,100.00
2023-05-17T19:52:56.655Z,100.00
2023-05-17T19:55:24.676Z,100.00
2023-05-17T19:57:51.456Z,100.00
2023-05-17T20:00:18.592Z,100.00
2023-05-17T20:02:47.335Z,100.00
2023-05-17T20:05:17.083Z,100.00
2023-05-17T20:07:44.029Z,100.00
2023-05-17T20:10:11.304Z,100.00
2023-05-17T20:12:38.675Z,100.00
2023-05-17T20:15:06.521Z,100.00
2023-05-17T20:17:33.512Z,100.00
2023-05-17T20:20:00.421Z,100.00
2023-05-17T20:22:27.188Z,100.00
2023-05-17T20:24:55.802Z,100.00
2023-05-17T20:27:25.922Z,100.00
2023-05-17T20:29:52.637Z,100.00
2023-05-17T20:32:19.350Z,100.00
2023-05-17T20:34:46.549Z,100.00
2023-05-17T20:37:13.206Z,100.00
2023-05-17T20:39:39.942Z,100.00
2023-05-17T20:42:08.394Z,100.00
2023-05-17T20:44:35.862Z,100.00
2023-05-17T20:47:04.857Z,100.00
2023-05-17T20:49:31.899Z,100.00
2023-05-17T20:52:02.683Z,100.00
2023-05-17T20:54:30.582Z,100.00
2023-05-17T20:56:58.183Z,100.00
2023-05-17T20:59:25.865Z,100.00
2023-05-17T21:01:53.093Z,100.00
2023-05-17T21:04:19.877Z,100.00
2023-05-17T21:06:46.931Z,100.00
2023-05-17T21:09:14.035Z,100.00
2023-05-17T21:11:41.022Z,100.00
2023-05-17T21:14:07.694Z,100.00
2023-05-17T21:16:35.432Z,100.00
2023-05-17T21:19:02.531Z,100.00
2023-05-17T21:21:29.285Z,100.00
2023-05-17T21:23:56.001Z,100.00
2023-05-17T21:26:23.268Z,100.00
2023-05-17T21:28:50.022Z,100.00
2023-05-17T21:31:16.862Z,100.00
2023-05-17T21:33:46.636Z,100.00
2023-05-17T21:36:13.220Z,100.00
2023-05-17T21:38:40.112Z,100.00
2023-05-17T21:41:06.799Z,100.00
2023-05-17T21:43:33.506Z,100.00
2023-05-17T21:46:00.193Z,100.00
2023-05-17T21:48:26.983Z,100.00
2023-05-17T21:50:53.747Z,100.00
2023-05-17T21:53:20.682Z,100.00
2023-05-17T21:58:20.433Z,100.00
2023-05-17T22:00:47.492Z,100.00
2023-05-17T22:03:14.185Z,100.00
2023-05-17T22:05:40.983Z,100.00
2023-05-17T22:08:07.747Z,100.00
2023-05-17T22:10:34.493Z,100.00
2023-05-17T22:13:02.230Z,100.00
2023-05-17T22:15:28.963Z,100.00
2023-05-17T22:17:55.878Z,100.00
2023-05-17T22:20:23.894Z,100.00
2023-05-17T22:22:50.715Z,100.00
2023-05-17T22:25:17.884Z,100.00
2023-05-17T22:27:45.411Z,100.00
2023-05-17T22:30:12.338Z,100.00
2023-05-17T22:32:40.245Z,100.00
2023-05-17T22:35:07.293Z,100.00
2023-05-17T22:37:34.055Z,100.00
2023-05-17T22:40:00.805Z,100.00
2023-05-17T22:42:27.614Z,100.00
2023-05-17T22:44:54.328Z,100.00
2023-05-17T22:47:23.104Z,100.00
2023-05-17T22:49:52.730Z,100.00
2023-05-17T22:52:19.828Z,100.00
2023-05-17T22:54:46.488Z,100.00
2023-05-17T22:57:13.324Z,100.00
2023-05-17T22:59:40.091Z,100.00
2023-05-17T23:02:06.925Z,100.00
2023-05-17T23:04:33.707Z,100.00
2023-05-17T23:07:02.166Z,100.00
2023-05-17T23:09:33.921Z,100.00
2023-05-17T23:12:05.506Z,100.00
2023-05-17T23:14:36.357Z,100.00
2023-05-17T23:17:04.151Z,100.00
2023-05-17T23:19:33.303Z,100.00
2023-05-17T23:22:03.508Z,100.00
2023-05-17T23:24:30.345Z,100.00
2023-05-17T23:26:57.651Z,100.00
2023-05-17T23:29:26.023Z,100.00
2023-05-17T23:31:53.298Z,100.00
2023-05-17T23:34:20.397Z,100.00
2023-05-17T23:36:47.188Z,100.00
2023-05-17T23:39:13.779Z,100.00
2023-05-17T23:41:40.624Z,100.00
2023-05-17T23:44:07.893Z,100.00
2023-05-17T23:46:34.858Z,100.00
2023-05-17T23:49:02.413Z,100.00
2023-05-17T23:51:29.262Z,100.00
2023-05-17T23:53:56.326Z,100.00
2023-05-17T23:56:23.270Z,100.00
2023-05-17T23:58:50.128Z,100.00
